sensor_id;sensor_type;location;lat;lon;timestamp;pressure;altitude;pressure_sealevel;temperature;humidity
71145;BME280;58812;47.698;17.726;2023-04-09T00:02:21;100914.94;;;4.04;100.00
71145;BME280;58812;47.698;17.726;2023-04-09T00:04:46;100915.00;;;4.02;100.00
71145;BME280;58812;47.698;17.726;2023-04-09T00:07:11;100917.97;;;3.98;100.00
71145;BME280;58812;47.698;17.726;2023-04-09T00:09:37;100916.91;;;4.00;100.00
71145;BME280;58812;47.698;17.726;2023-04-09T00:12:02;100921.94;;;4.05;100.00
71145;BME280;58812;47.698;17.726;2023-04-09T00:14:28;100913.31;;;4.01;100.00
71145;BME280;58812;47.698;17.726;2023-04-09T00:16:53;100918.63;;;4.01;100.00
71145;BME280;58812;47.698;17.726;2023-04-09T00:19:19;100915.88;;;4.03;100.00
71145;BME280;58812;47.698;17.726;2023-04-09T00:21:45;100917.66;;;4.02;100.00
71145;BME280;58812;47.698;17.726;2023-04-09T00:24:10;100922.03;;;4.04;100.00
71145;BME280;58812;47.698;17.726;2023-04-09T00:26:36;100920.06;;;4.07;100.00
71145;BME280;58812;47.698;17.726;2023-04-09T00:29:01;100917.31;;;4.09;100.00
71145;BME280;58812;47.698;17.726;2023-04-09T00:31:27;100918.44;;;4.05;100.00
71145;BME280;58812;47.698;17.726;2023-04-09T00:33:52;100911.94;;;4.10;100.00
71145;BME280;58812;47.698;17.726;2023-04-09T00:36:17;100910.84;;;3.98;100.00
71145;BME280;58812;47.698;17.726;2023-04-09T00:38:43;100920.16;;;4.06;100.00
71145;BME280;58812;47.698;17.726;2023-04-09T00:41:09;100921.47;;;3.98;100.00
71145;BME280;58812;47.698;17.726;2023-04-09T00:43:34;100913.06;;;3.90;100.00
71145;BME280;58812;47.698;17.726;2023-04-09T00:46:00;100914.03;;;3.89;100.00
71145;BME280;58812;47.698;17.726;2023-04-09T00:48:26;100919.50;;;3.86;100.00
71145;BME280;58812;47.698;17.726;2023-04-09T00:50:52;100916.88;;;3.86;100.00
71145;BME280;58812;47.698;17.726;2023-04-09T00:53:17;100917.78;;;3.85;100.00
71145;BME280;58812;47.698;17.726;2023-04-09T00:55:43;100917.78;;;3.85;100.00
71145;BME280;58812;47.698;17.726;2023-04-09T00:58:08;100906.69;;;3.79;100.00
71145;BME280;58812;47.698;17.726;2023-04-09T01:00:34;100913.78;;;3.78;100.00
71145;BME280;58812;47.698;17.726;2023-04-09T01:03:00;100909.44;;;3.77;100.00
71145;BME280;58812;47.698;17.726;2023-04-09T01:05:34;100911.91;;;3.80;100.00
71145;BME280;58812;47.698;17.726;2023-04-09T01:08:14;100916.06;;;3.84;100.00
71145;BME280;58812;47.698;17.726;2023-04-09T01:10:57;100912.06;;;3.77;100.00
71145;BME280;58812;47.698;17.726;2023-04-09T01:13:41;100908.22;;;3.67;100.00
71145;BME280;58812;47.698;17.726;2023-04-09T01:16:09;100911.81;;;3.66;100.00
71145;BME280;58812;47.698;17.726;2023-04-09T01:18:42;100920.56;;;3.68;100.00
71145;BME280;58812;47.698;17.726;2023-04-09T01:21:14;100920.56;;;3.68;100.00
71145;BME280;58812;47.698;17.726;2023-04-09T01:28:57;100920.97;;;3.60;100.00
71145;BME280;58812;47.698;17.726;2023-04-09T01:31:30;100921.91;;;3.59;100.00
71145;BME280;58812;47.698;17.726;2023-04-09T01:33:56;100913.72;;;3.64;100.00
71145;BME280;58812;47.698;17.726;2023-04-09T01:36:23;100916.13;;;3.68;100.00
71145;BME280;58812;47.698;17.726;2023-04-09T01:38:50;100924.31;;;3.64;100.00
71145;BME280;58812;47.698;17.726;2023-04-09T01:41:19;100916.38;;;3.64;100.00
71145;BME280;58812;47.698;17.726;2023-04-09T01:43:51;100906.88;;;3.60;100.00
71145;BME280;58812;47.698;17.726;2023-04-09T01:46:18;100915.94;;;3.56;100.00
71145;BME280;58812;47.698;17.726;2023-04-09T01:48:45;100905.69;;;3.49;100.00
71145;BME280;58812;47.698;17.726;2023-04-09T01:51:11;100904.16;;;3.45;100.00
71145;BME280;58812;47.698;17.726;2023-04-09T01:53:41;100913.06;;;3.44;100.00
71145;BME280;58812;47.698;17.726;2023-04-09T01:56:07;100904.16;;;3.45;100.00
71145;BME280;58812;47.698;17.726;2023-04-09T01:58:33;100914.75;;;3.45;100.00
71145;BME280;58812;47.698;17.726;2023-04-09T02:01:05;100907.22;;;3.38;100.00
71145;BME280;58812;47.698;17.726;2023-04-09T02:03:44;100907.50;;;3.33;100.00
71145;BME280;58812;47.698;17.726;2023-04-09T02:08:36;100908.16;;;3.21;100.00
71145;BME280;58812;47.698;17.726;2023-04-09T02:11:04;100913.88;;;3.29;100.00
71145;BME280;58812;47.698;17.726;2023-04-09T02:13:30;100904.72;;;3.19;100.00
71145;BME280;58812;47.698;17.726;2023-04-09T02:15:57;100904.13;;;3.14;100.00
71145;BME280;58812;47.698;17.726;2023-04-09T02:18:28;100910.34;;;3.13;100.00
71145;BME280;58812;47.698;17.726;2023-04-09T02:20:57;100902.59;;;3.10;100.00
71145;BME280;58812;47.698;17.726;2023-04-09T02:23:25;100920.00;;;3.14;100.00
71145;BME280;58812;47.698;17.726;2023-04-09T02:25:52;100905.25;;;3.10;100.00
71145;BME280;58812;47.698;17.726;2023-04-09T02:28:17;100902.59;;;3.10;100.00
71145;BME280;58812;47.698;17.726;2023-04-09T02:30:43;100908.13;;;3.05;100.00
71145;BME280;58812;47.698;17.726;2023-04-09T02:33:08;100908.22;;;3.04;100.00
71145;BME280;58812;47.698;17.726;2023-04-09T02:35:34;100906.84;;;2.97;100.00
71145;BME280;58812;47.698;17.726;2023-04-09T02:37:59;100912.91;;;2.99;100.00
71145;BME280;58812;47.698;17.726;2023-04-09T02:40:24;100901.56;;;2.97;100.00
71145;BME280;58812;47.698;17.726;2023-04-09T02:42:51;100898.91;;;2.97;100.00
71145;BME280;58812;47.698;17.726;2023-04-09T02:45:17;100900.63;;;2.98;100.00
71145;BME280;58812;47.698;17.726;2023-04-09T02:47:42;100894.22;;;3.02;100.00
71145;BME280;58812;47.698;17.726;2023-04-09T02:50:07;100890.47;;;3.06;100.00
71145;BME280;58812;47.698;17.726;2023-04-09T02:52:33;100896.03;;;3.17;100.00
71145;BME280;58812;47.698;17.726;2023-04-09T02:54:58;100893.22;;;3.20;100.00
71145;BME280;58812;47.698;17.726;2023-04-09T02:57:24;100898.50;;;3.20;100.00
71145;BME280;58812;47.698;17.726;2023-04-09T02:59:49;100894.41;;;3.30;100.00
71145;BME280;58812;47.698;17.726;2023-04-09T03:02:15;100897.91;;;3.31;100.00
71145;BME280;58812;47.698;17.726;2023-04-09T03:04:40;100896.72;;;3.36;100.00
71145;BME280;58812;47.698;17.726;2023-04-09T03:07:05;100896.81;;;3.35;100.00
71145;BME280;58812;47.698;17.726;2023-04-09T03:09:31;100895.97;;;3.34;100.00
71145;BME280;58812;47.698;17.726;2023-04-09T03:11:56;100894.31;;;3.32;100.00
71145;BME280;58812;47.698;17.726;2023-04-09T03:14:23;100892.56;;;3.32;100.00
71145;BME280;58812;47.698;17.726;2023-04-09T03:16:48;100885.53;;;3.31;100.00
71145;BME280;58812;47.698;17.726;2023-04-09T03:19:14;100891.63;;;3.33;100.00
71145;BME280;58812;47.698;17.726;2023-04-09T03:21:39;100892.47;;;3.34;100.00
71145;BME280;58812;47.698;17.726;2023-04-09T03:24:05;100893.91;;;3.39;100.00
71145;BME280;58812;47.698;17.726;2023-04-09T03:26:30;100887.00;;;3.37;100.00
71145;BME280;58812;47.698;17.726;2023-04-09T03:29:01;100900.31;;;3.35;100.00
71145;BME280;58812;47.698;17.726;2023-04-09T03:31:26;100894.59;;;3.27;100.00
71145;BME280;58812;47.698;17.726;2023-04-09T03:33:51;100894.59;;;3.27;100.00
71145;BME280;58812;47.698;17.726;2023-04-09T03:36:17;100889.31;;;3.27;100.00
71145;BME280;58812;47.698;17.726;2023-04-09T03:38:42;100891.78;;;3.30;100.00
71145;BME280;58812;47.698;17.726;2023-04-09T03:41:07;100892.13;;;3.40;100.00
71145;BME280;58812;47.698;17.726;2023-04-09T03:43:33;100897.16;;;3.44;100.00
71145;BME280;58812;47.698;17.726;2023-04-09T03:45:58;100898.69;;;3.48;100.00
71145;BME280;58812;47.698;17.726;2023-04-09T03:48:23;100898.19;;;3.42;100.00
71145;BME280;58812;47.698;17.726;2023-04-09T03:50:49;100897.31;;;3.41;100.00
71145;BME280;58812;47.698;17.726;2023-04-09T03:53:14;100899.03;;;3.42;100.00
71145;BME280;58812;47.698;17.726;2023-04-09T03:55:40;100897.66;;;3.35;100.00
71145;BME280;58812;47.698;17.726;2023-04-09T03:58:05;100903.16;;;3.32;100.00
71145;BME280;58812;47.698;17.726;2023-04-09T04:00:31;100904.06;;;3.31;100.00
71145;BME280;58812;47.698;17.726;2023-04-09T04:02:56;100911.00;;;3.34;100.00
71145;BME280;58812;47.698;17.726;2023-04-09T04:05:23;100902.97;;;3.35;100.00
71145;BME280;58812;47.698;17.726;2023-04-09T04:07:49;100907.22;;;3.38;100.00
71145;BME280;58812;47.698;17.726;2023-04-09T04:10:15;100911.84;;;3.34;100.00
71145;BME280;58812;47.698;17.726;2023-04-09T04:12:40;100908.09;;;3.38;100.00
71145;BME280;58812;47.698;17.726;2023-04-09T04:15:06;100912.34;;;3.41;100.00
71145;BME280;58812;47.698;17.726;2023-04-09T04:17:31;100922.78;;;3.44;100.00
71145;BME280;58812;47.698;17.726;2023-04-09T04:19:56;100919.84;;;3.48;100.00
71145;BME280;58812;47.698;17.726;2023-04-09T04:22:22;100918.84;;;3.51;100.00
71145;BME280;58812;47.698;17.726;2023-04-09T04:24:47;100919.97;;;3.63;100.00
71145;BME280;58812;47.698;17.726;2023-04-09T04:27:13;100921.06;;;3.59;100.00
71145;BME280;58812;47.698;17.726;2023-04-09T04:29:38;100922.59;;;3.63;100.00
71145;BME280;58812;47.698;17.726;2023-04-09T04:32:04;100918.56;;;3.71;100.00
71145;BME280;58812;47.698;17.726;2023-04-09T04:34:29;100917.47;;;3.75;100.00
71145;BME280;58812;47.698;17.726;2023-04-09T04:36:54;100917.91;;;3.68;100.00
71145;BME280;58812;47.698;17.726;2023-04-09T04:39:20;100918.47;;;3.73;100.00
71145;BME280;58812;47.698;17.726;2023-04-09T04:41:45;100918.72;;;3.84;100.00
71145;BME280;58812;47.698;17.726;2023-04-09T04:44:11;100924.13;;;3.83;100.00
71145;BME280;58812;47.698;17.726;2023-04-09T04:46:36;100925.72;;;3.85;100.00
71145;BME280;58812;47.698;17.726;2023-04-09T04:49:01;100926.16;;;3.78;100.00
71145;BME280;58812;47.698;17.726;2023-04-09T04:51:30;100921.22;;;3.71;100.00
71145;BME280;58812;47.698;17.726;2023-04-09T04:53:55;100931.72;;;3.73;100.00
71145;BME280;58812;47.698;17.726;2023-04-09T04:56:21;100930.00;;;3.72;100.00
71145;BME280;58812;47.698;17.726;2023-04-09T04:58:46;100933.09;;;3.80;100.00
71145;BME280;58812;47.698;17.726;2023-04-09T05:01:11;100924.31;;;3.80;100.00
71145;BME280;58812;47.698;17.726;2023-04-09T05:03:37;100938.22;;;3.83;100.00
71145;BME280;58812;47.698;17.726;2023-04-09T05:06:02;100933.84;;;3.82;100.00
71145;BME280;58812;47.698;17.726;2023-04-09T05:08:28;100933.50;;;3.88;100.00
71145;BME280;58812;47.698;17.726;2023-04-09T05:10:53;100931.63;;;3.90;100.00
71145;BME280;58812;47.698;17.726;2023-04-09T05:13:20;100924.63;;;3.89;100.00
71145;BME280;58812;47.698;17.726;2023-04-09T05:15:46;100931.94;;;4.00;100.00
71145;BME280;58812;47.698;17.726;2023-04-09T05:18:11;100936.41;;;3.99;100.00
71145;BME280;58812;47.698;17.726;2023-04-09T05:20:36;100936.41;;;3.99;100.00
71145;BME280;58812;47.698;17.726;2023-04-09T05:23:02;100931.94;;;4.00;100.00
71145;BME280;58812;47.698;17.726;2023-04-09T05:25:27;100935.56;;;3.99;100.00
71145;BME280;58812;47.698;17.726;2023-04-09T05:27:53;100936.41;;;3.99;100.00
71145;BME280;58812;47.698;17.726;2023-04-09T05:30:18;100941.16;;;4.09;100.00
71145;BME280;58812;47.698;17.726;2023-04-09T05:32:44;100940.91;;;4.13;100.00
71145;BME280;58812;47.698;17.726;2023-04-09T05:35:09;100944.41;;;4.14;100.00
71145;BME280;58812;47.698;17.726;2023-04-09T05:37:35;100947.28;;;4.25;100.00
71145;BME280;58812;47.698;17.726;2023-04-09T05:40:00;100953.28;;;4.28;100.00
71145;BME280;58812;47.698;17.726;2023-04-09T05:42:25;100954.59;;;4.36;100.00
71145;BME280;58812;47.698;17.726;2023-04-09T05:44:51;100946.56;;;4.37;100.00
71145;BME280;58812;47.698;17.726;2023-04-09T05:47:16;100965.19;;;4.51;100.00
71145;BME280;58812;47.698;17.726;2023-04-09T05:49:42;100965.34;;;4.48;100.00
71145;BME280;58812;47.698;17.726;2023-04-09T05:52:07;100964.50;;;4.48;100.00
71145;BME280;58812;47.698;17.726;2023-04-09T05:54:34;100967.81;;;4.51;100.00
71145;BME280;58812;47.698;17.726;2023-04-09T05:56:59;100962.31;;;4.54;100.00
71145;BME280;58812;47.698;17.726;2023-04-09T05:59:25;100964.81;;;4.58;100.00
71145;BME280;58812;47.698;17.726;2023-04-09T06:01:51;100970.97;;;4.58;100.00
71145;BME280;58812;47.698;17.726;2023-04-09T06:04:16;100972.03;;;4.70;100.00
71145;BME280;58812;47.698;17.726;2023-04-09T06:06:42;100973.84;;;4.69;100.00
71145;BME280;58812;47.698;17.726;2023-04-09T06:09:07;100978.00;;;4.73;100.00
71145;BME280;58812;47.698;17.726;2023-04-09T06:11:32;100969.00;;;4.76;100.00
71145;BME280;58812;47.698;17.726;2023-04-09T06:13:58;100974.81;;;4.82;100.00
71145;BME280;58812;47.698;17.726;2023-04-09T06:16:23;100978.28;;;4.69;100.00
71145;BME280;58812;47.698;17.726;2023-04-09T06:18:49;100976.37;;;4.71;100.00
71145;BME280;58812;47.698;17.726;2023-04-09T06:21:18;100975.66;;;4.83;100.00
71145;BME280;58812;47.698;17.726;2023-04-09T06:23:44;100982.28;;;4.90;100.00
71145;BME280;58812;47.698;17.726;2023-04-09T06:26:09;100980.22;;;4.95;100.00
71145;BME280;58812;47.698;17.726;2023-04-09T06:28:35;100972.16;;;4.97;100.00
71145;BME280;58812;47.698;17.726;2023-04-09T06:31:00;100981.06;;;4.96;100.00
71145;BME280;58812;47.698;17.726;2023-04-09T06:33:26;100983.81;;;4.94;100.00
71145;BME280;58812;47.698;17.726;2023-04-09T06:35:51;100987.69;;;5.03;100.00
71145;BME280;58812;47.698;17.726;2023-04-09T06:38:17;100987.41;;;5.07;100.00
71145;BME280;58812;47.698;17.726;2023-04-09T06:40:43;100988.38;;;5.06;100.00
71145;BME280;58812;47.698;17.726;2023-04-09T06:43:08;100987.78;;;5.01;100.00
71145;BME280;58812;47.698;17.726;2023-04-09T06:45:35;100991.31;;;5.02;100.00
71145;BME280;58812;47.698;17.726;2023-04-09T06:48:01;100998.25;;;5.04;100.00
71145;BME280;58812;47.698;17.726;2023-04-09T06:50:27;100994.72;;;5.04;100.00
71145;BME280;58812;47.698;17.726;2023-04-09T06:52:53;100996.50;;;5.03;100.00
71145;BME280;58812;47.698;17.726;2023-04-09T06:55:19;100993.31;;;5.13;100.00
71145;BME280;58812;47.698;17.726;2023-04-09T06:57:44;100997.94;;;5.37;100.00
71145;BME280;58812;47.698;17.726;2023-04-09T07:00:10;100995.78;;;5.30;100.00
71145;BME280;58812;47.698;17.726;2023-04-09T07:02:36;101002.22;;;5.26;100.00
71145;BME280;58812;47.698;17.726;2023-04-09T07:05:02;100996.34;;;5.49;100.00
71145;BME280;58812;47.698;17.726;2023-04-09T07:07:28;101001.47;;;5.38;100.00
71145;BME280;58812;47.698;17.726;2023-04-09T07:09:54;101012.94;;;5.53;100.00
71145;BME280;58812;47.698;17.726;2023-04-09T07:12:30;101009.63;;;5.63;100.00
71145;BME280;58812;47.698;17.726;2023-04-09T07:15:01;101018.50;;;5.62;100.00
71145;BME280;58812;47.698;17.726;2023-04-09T07:17:28;101015.84;;;5.77;100.00
71145;BME280;58812;47.698;17.726;2023-04-09T07:19:53;101018.88;;;5.99;100.00
71145;BME280;58812;47.698;17.726;2023-04-09T07:22:23;101019.50;;;6.17;100.00
71145;BME280;58812;47.698;17.726;2023-04-09T07:24:49;101018.44;;;6.20;100.00
71145;BME280;58812;47.698;17.726;2023-04-09T07:27:25;101020.41;;;6.30;100.00
71145;BME280;58812;47.698;17.726;2023-04-09T07:29:55;101024.75;;;6.31;100.00
71145;BME280;58812;47.698;17.726;2023-04-09T07:32:21;101028.25;;;6.32;100.00
71145;BME280;58812;47.698;17.726;2023-04-09T07:34:47;101023.25;;;6.54;100.00
71145;BME280;58812;47.698;17.726;2023-04-09T07:37:12;101021.31;;;6.56;100.00
71145;BME280;58812;47.698;17.726;2023-04-09T07:39:37;101024.09;;;6.55;100.00
71145;BME280;58812;47.698;17.726;2023-04-09T07:42:03;101020.69;;;6.53;100.00
71145;BME280;58812;47.698;17.726;2023-04-09T07:44:33;101025.69;;;6.57;100.00
71145;BME280;58812;47.698;17.726;2023-04-09T07:47:00;101025.16;;;6.52;100.00
71145;BME280;58812;47.698;17.726;2023-04-09T07:49:25;101030.47;;;6.52;100.00
71145;BME280;58812;47.698;17.726;2023-04-09T07:51:51;101032.34;;;6.37;100.00
71145;BME280;58812;47.698;17.726;2023-04-09T07:54:16;101028.09;;;6.35;100.00
71145;BME280;58812;47.698;17.726;2023-04-09T07:56:42;101030.16;;;6.57;100.00
71145;BME280;58812;47.698;17.726;2023-04-09T07:59:07;101032.66;;;6.73;100.00
71145;BME280;58812;47.698;17.726;2023-04-09T08:01:32;101039.00;;;9.40;100.00
71145;BME280;58812;47.698;17.726;2023-04-09T08:03:58;101035.75;;;9.01;94.47
71145;BME280;58812;47.698;17.726;2023-04-09T08:06:23;101043.06;;;10.33;93.65
71145;BME280;58812;47.698;17.726;2023-04-09T08:08:49;101039.84;;;9.74;84.45
71145;BME280;58812;47.698;17.726;2023-04-09T08:11:14;101044.66;;;10.13;83.75
71145;BME280;58812;47.698;17.726;2023-04-09T08:13:40;101041.56;;;9.63;86.82
71145;BME280;58812;47.698;17.726;2023-04-09T08:16:05;101039.34;;;9.35;89.46
71145;BME280;58812;47.698;17.726;2023-04-09T08:18:31;101048.00;;;10.81;85.63
71145;BME280;58812;47.698;17.726;2023-04-09T08:20:56;101050.84;;;11.21;79.80
71145;BME280;58812;47.698;17.726;2023-04-09T08:23:22;101054.03;;;10.08;75.17
71145;BME280;58812;47.698;17.726;2023-04-09T08:25:47;101057.63;;;10.52;72.96
71145;BME280;58812;47.698;17.726;2023-04-09T08:28:12;101058.72;;;10.81;75.12
71145;BME280;58812;47.698;17.726;2023-04-09T08:30:38;101052.00;;;10.55;79.22
71145;BME280;58812;47.698;17.726;2023-04-09T08:33:03;101057.09;;;12.23;75.25
71145;BME280;58812;47.698;17.726;2023-04-09T08:35:30;101056.84;;;10.61;74.71
71145;BME280;58812;47.698;17.726;2023-04-09T08:37:55;101055.56;;;11.60;78.39
71145;BME280;58812;47.698;17.726;2023-04-09T08:40:21;101061.28;;;11.04;75.15
71145;BME280;58812;47.698;17.726;2023-04-09T08:42:53;101053.31;;;9.27;79.64
71145;BME280;58812;47.698;17.726;2023-04-09T08:45:20;101053.87;;;9.08;81.22
71145;BME280;58812;47.698;17.726;2023-04-09T08:47:47;101059.53;;;8.93;83.91
71145;BME280;58812;47.698;17.726;2023-04-09T08:50:13;101056.03;;;8.68;85.96
71145;BME280;58812;47.698;17.726;2023-04-09T08:52:39;101051.34;;;8.35;83.61
71145;BME280;58812;47.698;17.726;2023-04-09T08:55:05;101060.31;;;8.10;85.16
71145;BME280;58812;47.698;17.726;2023-04-09T08:57:37;101060.47;;;7.70;87.17
71145;BME280;58812;47.698;17.726;2023-04-09T09:00:02;101058.25;;;7.52;86.73
71145;BME280;58812;47.698;17.726;2023-04-09T09:02:29;101053.22;;;6.83;90.01
71145;BME280;58812;47.698;17.726;2023-04-09T09:04:55;101059.78;;;7.43;90.08
71145;BME280;58812;47.698;17.726;2023-04-09T09:07:28;101074.03;;;7.29;88.01
71145;BME280;58812;47.698;17.726;2023-04-09T09:09:58;101062.62;;;7.40;87.19
71145;BME280;58812;47.698;17.726;2023-04-09T09:12:41;101068.31;;;7.48;88.54
71145;BME280;58812;47.698;17.726;2023-04-09T09:15:27;101062.88;;;7.37;88.50
71145;BME280;58812;47.698;17.726;2023-04-09T09:17:58;101066.19;;;7.53;88.02
71145;BME280;58812;47.698;17.726;2023-04-09T09:20:25;101065.28;;;7.78;87.60
71145;BME280;58812;47.698;17.726;2023-04-09T09:22:52;101065.03;;;7.94;87.32
71145;BME280;58812;47.698;17.726;2023-04-09T09:25:18;101062.88;;;7.99;86.33
71145;BME280;58812;47.698;17.726;2023-04-09T09:27:47;101059.84;;;8.16;86.23
71145;BME280;58812;47.698;17.726;2023-04-09T09:30:21;101070.06;;;8.22;83.68
71145;BME280;58812;47.698;17.726;2023-04-09T09:32:50;101065.09;;;8.05;81.12
71145;BME280;58812;47.698;17.726;2023-04-09T09:35:16;101064.91;;;8.08;82.52
71145;BME280;58812;47.698;17.726;2023-04-09T09:37:42;101068.16;;;8.24;82.83
71145;BME280;58812;47.698;17.726;2023-04-09T09:40:08;101067.19;;;8.25;82.20
71145;BME280;58812;47.698;17.726;2023-04-09T09:42:33;101062.31;;;8.19;80.95
71145;BME280;58812;47.698;17.726;2023-04-09T09:45:00;101063.94;;;8.09;82.90
71145;BME280;58812;47.698;17.726;2023-04-09T09:47:26;101063.78;;;8.23;83.62
71145;BME280;58812;47.698;17.726;2023-04-09T09:49:53;101063.56;;;8.26;83.73
71145;BME280;58812;47.698;17.726;2023-04-09T09:52:23;101059.19;;;8.25;84.34
71145;BME280;58812;47.698;17.726;2023-04-09T09:54:51;101058.25;;;7.64;85.66
71145;BME280;58812;47.698;17.726;2023-04-09T09:57:19;101067.06;;;7.90;86.34
71145;BME280;58812;47.698;17.726;2023-04-09T09:59:56;101067.69;;;7.94;85.05
71145;BME280;58812;47.698;17.726;2023-04-09T10:02:23;101064.97;;;7.83;84.28
71145;BME280;58812;47.698;17.726;2023-04-09T10:04:51;101062.97;;;8.10;84.71
71145;BME280;58812;47.698;17.726;2023-04-09T10:07:19;101067.66;;;8.19;83.84
71145;BME280;58812;47.698;17.726;2023-04-09T10:09:49;101070.00;;;8.11;83.16
71145;BME280;58812;47.698;17.726;2023-04-09T10:12:16;101062.84;;;8.24;82.88
71145;BME280;58812;47.698;17.726;2023-04-09T10:14:43;101075.59;;;8.45;82.95
71145;BME280;58812;47.698;17.726;2023-04-09T10:17:10;101072.97;;;8.19;82.31
71145;BME280;58812;47.698;17.726;2023-04-09T10:19:46;101075.19;;;8.38;84.02
71145;BME280;58812;47.698;17.726;2023-04-09T10:22:17;101071.66;;;8.38;83.75
71145;BME280;58812;47.698;17.726;2023-04-09T10:24:44;101078.38;;;8.30;84.96
71145;BME280;58812;47.698;17.726;2023-04-09T10:27:13;101065.06;;;8.30;84.89
71145;BME280;58812;47.698;17.726;2023-04-09T10:29:46;101068.31;;;8.10;84.85
71145;BME280;58812;47.698;17.726;2023-04-09T10:32:17;101067.56;;;8.08;84.39
71145;BME280;58812;47.698;17.726;2023-04-09T10:34:45;101062.44;;;8.05;84.51
71145;BME280;58812;47.698;17.726;2023-04-09T10:37:23;101069.34;;;7.84;83.29
71145;BME280;58812;47.698;17.726;2023-04-09T10:39:50;101063.75;;;7.99;84.81
71145;BME280;58812;47.698;17.726;2023-04-09T10:42:22;101066.06;;;8.04;83.47
71145;BME280;58812;47.698;17.726;2023-04-09T10:45:11;101066.00;;;8.42;83.74
71145;BME280;58812;47.698;17.726;2023-04-09T10:47:39;101064.84;;;8.57;82.69
71145;BME280;58812;47.698;17.726;2023-04-09T10:52:52;101055.97;;;8.81;80.52
71145;BME280;58812;47.698;17.726;2023-04-09T10:55:35;101054.34;;;8.67;79.91
71145;BME280;58812;47.698;17.726;2023-04-09T10:58:08;101057.44;;;8.85;78.48
71145;BME280;58812;47.698;17.726;2023-04-09T11:00:47;101063.00;;;8.82;78.12
71145;BME280;58812;47.698;17.726;2023-04-09T11:05:47;101064.78;;;8.70;76.70
71145;BME280;58812;47.698;17.726;2023-04-09T11:08:15;101061.69;;;8.88;78.25
71145;BME280;58812;47.698;17.726;2023-04-09T11:10:43;101066.91;;;8.78;76.70
71145;BME280;58812;47.698;17.726;2023-04-09T11:13:13;101059.16;;;8.62;79.10
71145;BME280;58812;47.698;17.726;2023-04-09T11:15:39;101060.00;;;8.87;80.41
71145;BME280;58812;47.698;17.726;2023-04-09T11:18:05;101063.91;;;8.94;79.56
71145;BME280;58812;47.698;17.726;2023-04-09T11:20:39;101063.44;;;9.00;77.60
71145;BME280;58812;47.698;17.726;2023-04-09T11:23:05;101064.66;;;9.07;76.44
71145;BME280;58812;47.698;17.726;2023-04-09T11:25:31;101061.75;;;9.10;76.83
71145;BME280;58812;47.698;17.726;2023-04-09T11:27:58;101062.50;;;9.12;76.49
71145;BME280;58812;47.698;17.726;2023-04-09T11:30:24;101068.59;;;9.14;76.02
71145;BME280;58812;47.698;17.726;2023-04-09T11:32:50;101065.94;;;9.25;75.63
71145;BME280;58812;47.698;17.726;2023-04-09T11:35:18;101065.69;;;9.28;75.91
71145;BME280;58812;47.698;17.726;2023-04-09T11:37:44;101060.84;;;9.33;75.09
71145;BME280;58812;47.698;17.726;2023-04-09T11:42:41;101067.84;;;9.23;73.31
71145;BME280;58812;47.698;17.726;2023-04-09T11:45:08;101063.53;;;9.33;73.96
71145;BME280;58812;47.698;17.726;2023-04-09T11:47:34;101065.22;;;9.34;73.69
71145;BME280;58812;47.698;17.726;2023-04-09T11:49:59;101064.94;;;9.15;73.55
71145;BME280;58812;47.698;17.726;2023-04-09T11:52:26;101059.88;;;9.34;72.27
71145;BME280;58812;47.698;17.726;2023-04-09T11:54:52;101066.91;;;9.35;73.37
71145;BME280;58812;47.698;17.726;2023-04-09T11:57:17;101066.72;;;9.61;70.73
71145;BME280;58812;47.698;17.726;2023-04-09T11:59:43;101069.72;;;9.45;71.53
71145;BME280;58812;47.698;17.726;2023-04-09T12:02:09;101069.38;;;9.50;71.21
71145;BME280;58812;47.698;17.726;2023-04-09T12:04:35;101067.66;;;9.38;71.41
71145;BME280;58812;47.698;17.726;2023-04-09T12:07:00;101071.19;;;9.49;71.06
71145;BME280;58812;47.698;17.726;2023-04-09T12:09:26;101070.09;;;9.63;71.12
71145;BME280;58812;47.698;17.726;2023-04-09T12:11:51;101072.31;;;9.80;70.61
71145;BME280;58812;47.698;17.726;2023-04-09T12:14:18;101066.94;;;9.80;70.63
71145;BME280;58812;47.698;17.726;2023-04-09T12:16:49;101072.88;;;9.84;69.43
71145;BME280;58812;47.698;17.726;2023-04-09T12:19:15;101072.31;;;9.80;68.80
71145;BME280;58812;47.698;17.726;2023-04-09T12:24:10;101072.28;;;10.14;68.17
71145;BME280;58812;47.698;17.726;2023-04-09T12:26:35;101072.16;;;10.27;68.30
71145;BME280;58812;47.698;17.726;2023-04-09T12:29:01;101076.28;;;10.31;67.32
71145;BME280;58812;47.698;17.726;2023-04-09T12:31:26;101065.88;;;10.49;65.90
71145;BME280;58812;47.698;17.726;2023-04-09T12:33:51;101067.03;;;10.67;66.93
71145;BME280;58812;47.698;17.726;2023-04-09T12:36:17;101071.00;;;10.52;64.44
71145;BME280;58812;47.698;17.726;2023-04-09T12:38:42;101061.75;;;10.56;65.17
71145;BME280;58812;47.698;17.726;2023-04-09T12:41:08;101059.12;;;10.65;64.59
71145;BME280;58812;47.698;17.726;2023-04-09T12:43:33;101057.22;;;10.88;64.47
71145;BME280;58812;47.698;17.726;2023-04-09T12:45:59;101053.97;;;11.06;64.32
71145;BME280;58812;47.698;17.726;2023-04-09T12:48:24;101056.47;;;11.49;63.27
71145;BME280;58812;47.698;17.726;2023-04-09T12:50:50;101058.34;;;11.07;62.59
71145;BME280;58812;47.698;17.726;2023-04-09T12:53:15;101057.56;;;11.67;62.17
71145;BME280;58812;47.698;17.726;2023-04-09T12:55:41;101056.12;;;12.34;60.06
71145;BME280;58812;47.698;17.726;2023-04-09T12:58:06;101056.00;;;12.84;58.97
71145;BME280;58812;47.698;17.726;2023-04-09T13:00:32;101051.78;;;12.02;58.99